sensor_id;sensor_type;location;lat;lon;timestamp;temperature;humidity
25436;DHT22;13363;52.772;-3.890;2022-08-07T00:01:11;12.70;99.90
25436;DHT22;13363;52.772;-3.890;2022-08-07T00:03:37;12.60;99.90
25436;DHT22;13363;52.772;-3.890;2022-08-07T00:06:04;12.50;99.90
25436;DHT22;13363;52.772;-3.890;2022-08-07T00:08:30;12.50;99.90
25436;DHT22;13363;52.772;-3.890;2022-08-07T00:10:56;12.50;99.90
25436;DHT22;13363;52.772;-3.890;2022-08-07T00:13:23;12.50;99.90
25436;DHT22;13363;52.772;-3.890;2022-08-07T00:15:50;12.50;99.90
25436;DHT22;13363;52.772;-3.890;2022-08-07T00:18:18;12.40;99.90
25436;DHT22;13363;52.772;-3.890;2022-08-07T00:20:44;12.40;99.90
25436;DHT22;13363;52.772;-3.890;2022-08-07T00:23:10;12.40;99.90
25436;DHT22;13363;52.772;-3.890;2022-08-07T00:25:36;12.40;99.90
25436;DHT22;13363;52.772;-3.890;2022-08-07T00:28:02;12.40;99.90
25436;DHT22;13363;52.772;-3.890;2022-08-07T00:30:28;12.40;99.90
25436;DHT22;13363;52.772;-3.890;2022-08-07T00:32:56;12.40;99.90
25436;DHT22;13363;52.772;-3.890;2022-08-07T00:35:22;12.20;99.90
25436;DHT22;13363;52.772;-3.890;2022-08-07T00:37:48;12.20;99.90
25436;DHT22;13363;52.772;-3.890;2022-08-07T00:40:14;12.20;99.90
25436;DHT22;13363;52.772;-3.890;2022-08-07T00:42:40;12.10;99.90
25436;DHT22;13363;52.772;-3.890;2022-08-07T00:45:07;12.10;99.90
25436;DHT22;13363;52.772;-3.890;2022-08-07T00:47:35;12.10;99.90
25436;DHT22;13363;52.772;-3.890;2022-08-07T00:50:01;12.10;99.90
25436;DHT22;13363;52.772;-3.890;2022-08-07T00:52:27;12.10;99.90
25436;DHT22;13363;52.772;-3.890;2022-08-07T00:54:53;12.00;99.90
25436;DHT22;13363;52.772;-3.890;2022-08-07T00:57:19;12.00;99.90
25436;DHT22;13363;52.772;-3.890;2022-08-07T00:59:46;12.00;99.90
25436;DHT22;13363;52.772;-3.890;2022-08-07T01:02:12;12.00;99.90
25436;DHT22;13363;52.772;-3.890;2022-08-07T01:04:38;12.00;99.90
25436;DHT22;13363;52.772;-3.890;2022-08-07T01:07:04;12.00;99.90
25436;DHT22;13363;52.772;-3.890;2022-08-07T01:09:31;12.00;99.90
25436;DHT22;13363;52.772;-3.890;2022-08-07T01:11:58;11.90;99.90
25436;DHT22;13363;52.772;-3.890;2022-08-07T01:14:25;11.90;99.90
25436;DHT22;13363;52.772;-3.890;2022-08-07T01:16:51;11.90;99.90
25436;DHT22;13363;52.772;-3.890;2022-08-07T01:19:19;11.90;99.90
25436;DHT22;13363;52.772;-3.890;2022-08-07T01:21:48;12.00;99.90
25436;DHT22;13363;52.772;-3.890;2022-08-07T01:24:16;12.00;99.90
25436;DHT22;13363;52.772;-3.890;2022-08-07T01:26:42;12.00;99.90
25436;DHT22;13363;52.772;-3.890;2022-08-07T01:29:08;11.90;99.90
25436;DHT22;13363;52.772;-3.890;2022-08-07T01:31:36;12.00;99.90
25436;DHT22;13363;52.772;-3.890;2022-08-07T01:34:03;12.00;99.90
25436;DHT22;13363;52.772;-3.890;2022-08-07T01:36:30;11.90;99.90
25436;DHT22;13363;52.772;-3.890;2022-08-07T01:38:57;11.90;99.90
25436;DHT22;13363;52.772;-3.890;2022-08-07T01:41:24;11.90;99.90
25436;DHT22;13363;52.772;-3.890;2022-08-07T01:43:51;11.90;99.90
25436;DHT22;13363;52.772;-3.890;2022-08-07T01:46:18;11.80;99.90
25436;DHT22;13363;52.772;-3.890;2022-08-07T01:48:46;11.80;99.90
25436;DHT22;13363;52.772;-3.890;2022-08-07T01:51:16;11.70;99.90
25436;DHT22;13363;52.772;-3.890;2022-08-07T01:53:46;11.70;99.90
25436;DHT22;13363;52.772;-3.890;2022-08-07T01:56:15;11.60;99.90
25436;DHT22;13363;52.772;-3.890;2022-08-07T01:58:48;11.60;99.90
25436;DHT22;13363;52.772;-3.890;2022-08-07T02:01:23;11.60;99.90
25436;DHT22;13363;52.772;-3.890;2022-08-07T02:03:59;11.60;99.90
25436;DHT22;13363;52.772;-3.890;2022-08-07T02:06:28;11.60;99.90
25436;DHT22;13363;52.772;-3.890;2022-08-07T02:08:56;11.50;99.90
25436;DHT22;13363;52.772;-3.890;2022-08-07T02:11:24;11.50;99.90
25436;DHT22;13363;52.772;-3.890;2022-08-07T02:13:52;11.50;99.90
25436;DHT22;13363;52.772;-3.890;2022-08-07T02:16:21;11.50;99.90
25436;DHT22;13363;52.772;-3.890;2022-08-07T02:18:49;11.50;99.90
25436;DHT22;13363;52.772;-3.890;2022-08-07T02:21:16;11.50;99.90
25436;DHT22;13363;52.772;-3.890;2022-08-07T02:23:43;11.40;99.90
25436;DHT22;13363;52.772;-3.890;2022-08-07T02:26:12;11.40;99.90
25436;DHT22;13363;52.772;-3.890;2022-08-07T02:28:39;11.40;99.90
25436;DHT22;13363;52.772;-3.890;2022-08-07T02:31:06;11.40;99.90
25436;DHT22;13363;52.772;-3.890;2022-08-07T02:33:33;11.40;99.90
25436;DHT22;13363;52.772;-3.890;2022-08-07T02:36:01;11.40;99.90
25436;DHT22;13363;52.772;-3.890;2022-08-07T02:38:32;11.40;99.90
25436;DHT22;13363;52.772;-3.890;2022-08-07T02:41:00;11.40;99.90
25436;DHT22;13363;52.772;-3.890;2022-08-07T02:43:27;11.40;99.90
25436;DHT22;13363;52.772;-3.890;2022-08-07T02:45:56;11.30;99.90
25436;DHT22;13363;52.772;-3.890;2022-08-07T02:48:23;11.30;99.90
25436;DHT22;13363;52.772;-3.890;2022-08-07T02:50:52;11.30;99.90
25436;DHT22;13363;52.772;-3.890;2022-08-07T02:53:27;11.30;99.90
25436;DHT22;13363;52.772;-3.890;2022-08-07T02:55:57;11.20;99.90
25436;DHT22;13363;52.772;-3.890;2022-08-07T02:58:24;11.10;99.90
25436;DHT22;13363;52.772;-3.890;2022-08-07T03:00:55;11.10;99.90
25436;DHT22;13363;52.772;-3.890;2022-08-07T03:03:23;11.20;99.90
25436;DHT22;13363;52.772;-3.890;2022-08-07T03:05:53;11.20;99.90
25436;DHT22;13363;52.772;-3.890;2022-08-07T03:08:21;11.10;99.90
25436;DHT22;13363;52.772;-3.890;2022-08-07T03:10:47;11.10;99.90
25436;DHT22;13363;52.772;-3.890;2022-08-07T03:13:16;11.10;99.90
25436;DHT22;13363;52.772;-3.890;2022-08-07T03:15:44;11.10;99.90
25436;DHT22;13363;52.772;-3.890;2022-08-07T03:18:11;11.10;99.90
25436;DHT22;13363;52.772;-3.890;2022-08-07T03:20:38;11.00;99.90
25436;DHT22;13363;52.772;-3.890;2022-08-07T03:23:06;11.00;99.90
25436;DHT22;13363;52.772;-3.890;2022-08-07T03:25:34;11.10;99.90
25436;DHT22;13363;52.772;-3.890;2022-08-07T03:28:03;11.10;99.90
25436;DHT22;13363;52.772;-3.890;2022-08-07T03:30:31;11.00;99.90
25436;DHT22;13363;52.772;-3.890;2022-08-07T03:32:59;10.90;99.90
25436;DHT22;13363;52.772;-3.890;2022-08-07T03:35:28;10.90;99.90
25436;DHT22;13363;52.772;-3.890;2022-08-07T03:38:02;10.90;99.90
25436;DHT22;13363;52.772;-3.890;2022-08-07T03:40:29;10.80;99.90
25436;DHT22;13363;52.772;-3.890;2022-08-07T03:42:55;10.80;99.90
25436;DHT22;13363;52.772;-3.890;2022-08-07T03:45:24;10.70;99.90
25436;DHT22;13363;52.772;-3.890;2022-08-07T03:47:51;10.70;99.90
25436;DHT22;13363;52.772;-3.890;2022-08-07T03:50:22;10.70;99.90
25436;DHT22;13363;52.772;-3.890;2022-08-07T03:52:51;10.70;99.90
25436;DHT22;13363;52.772;-3.890;2022-08-07T03:55:18;10.70;99.90
25436;DHT22;13363;52.772;-3.890;2022-08-07T03:57:44;10.70;99.90
25436;DHT22;13363;52.772;-3.890;2022-08-07T04:00:12;10.70;99.90
25436;DHT22;13363;52.772;-3.890;2022-08-07T04:02:39;10.70;99.90
25436;DHT22;13363;52.772;-3.890;2022-08-07T04:05:08;10.70;99.90
25436;DHT22;13363;52.772;-3.890;2022-08-07T04:07:34;10.60;99.90
25436;DHT22;13363;52.772;-3.890;2022-08-07T04:10:01;10.60;99.90
25436;DHT22;13363;52.772;-3.890;2022-08-07T04:12:29;10.60;99.90
25436;DHT22;13363;52.772;-3.890;2022-08-07T04:14:57;10.60;99.90
25436;DHT22;13363;52.772;-3.890;2022-08-07T04:17:23;10.60;99.90
25436;DHT22;13363;52.772;-3.890;2022-08-07T04:19:49;10.60;99.90
25436;DHT22;13363;52.772;-3.890;2022-08-07T04:22:16;10.60;99.90
25436;DHT22;13363;52.772;-3.890;2022-08-07T04:24:42;10.60;99.90
25436;DHT22;13363;52.772;-3.890;2022-08-07T04:27:08;10.60;99.90
25436;DHT22;13363;52.772;-3.890;2022-08-07T04:29:34;10.60;99.90
25436;DHT22;13363;52.772;-3.890;2022-08-07T04:32:00;10.60;99.90
25436;DHT22;13363;52.772;-3.890;2022-08-07T04:34:27;10.60;99.90
25436;DHT22;13363;52.772;-3.890;2022-08-07T04:36:53;10.60;99.90
25436;DHT22;13363;52.772;-3.890;2022-08-07T04:39:19;10.70;99.90
25436;DHT22;13363;52.772;-3.890;2022-08-07T04:41:45;10.60;99.90
25436;DHT22;13363;52.772;-3.890;2022-08-07T04:44:11;10.70;99.90
25436;DHT22;13363;52.772;-3.890;2022-08-07T04:46:48;10.70;99.90
25436;DHT22;13363;52.772;-3.890;2022-08-07T04:55:05;10.60;99.90
25436;DHT22;13363;52.772;-3.890;2022-08-07T04:57:47;10.60;99.90
25436;DHT22;13363;52.772;-3.890;2022-08-07T05:00:24;10.70;99.90
25436;DHT22;13363;52.772;-3.890;2022-08-07T05:03:10;10.70;99.90
25436;DHT22;13363;52.772;-3.890;2022-08-07T05:05:53;10.70;99.90
25436;DHT22;13363;52.772;-3.890;2022-08-07T05:08:31;10.80;99.90
25436;DHT22;13363;52.772;-3.890;2022-08-07T05:11:24;10.80;99.90
25436;DHT22;13363;52.772;-3.890;2022-08-07T05:13:59;10.80;99.90
25436;DHT22;13363;52.772;-3.890;2022-08-07T05:16:28;10.90;99.90
25436;DHT22;13363;52.772;-3.890;2022-08-07T05:18:59;11.00;99.90
25436;DHT22;13363;52.772;-3.890;2022-08-07T05:21:29;11.10;99.90
25436;DHT22;13363;52.772;-3.890;2022-08-07T05:24:03;11.20;99.90
25436;DHT22;13363;52.772;-3.890;2022-08-07T05:26:32;11.20;99.90
25436;DHT22;13363;52.772;-3.890;2022-08-07T05:29:01;11.30;99.90
25436;DHT22;13363;52.772;-3.890;2022-08-07T05:31:31;11.30;99.90
25436;DHT22;13363;52.772;-3.890;2022-08-07T05:33:59;11.40;99.90
25436;DHT22;13363;52.772;-3.890;2022-08-07T05:36:27;11.40;99.90
25436;DHT22;13363;52.772;-3.890;2022-08-07T05:38:54;11.50;99.90
25436;DHT22;13363;52.772;-3.890;2022-08-07T05:41:22;11.50;99.90
25436;DHT22;13363;52.772;-3.890;2022-08-07T05:43:49;11.60;99.90
25436;DHT22;13363;52.772;-3.890;2022-08-07T05:46:18;11.60;99.90
25436;DHT22;13363;52.772;-3.890;2022-08-07T05:48:44;11.70;99.90
25436;DHT22;13363;52.772;-3.890;2022-08-07T05:51:10;11.80;99.90
25436;DHT22;13363;52.772;-3.890;2022-08-07T05:53:37;11.90;99.90
25436;DHT22;13363;52.772;-3.890;2022-08-07T05:56:03;11.90;99.90
25436;DHT22;13363;52.772;-3.890;2022-08-07T05:58:32;12.00;99.90
25436;DHT22;13363;52.772;-3.890;2022-08-07T06:01:00;12.10;99.90
25436;DHT22;13363;52.772;-3.890;2022-08-07T06:03:26;12.10;99.90
25436;DHT22;13363;52.772;-3.890;2022-08-07T06:05:54;12.10;99.90
25436;DHT22;13363;52.772;-3.890;2022-08-07T06:08:21;12.10;99.90
25436;DHT22;13363;52.772;-3.890;2022-08-07T06:10:47;12.20;99.90
25436;DHT22;13363;52.772;-3.890;2022-08-07T06:13:14;12.20;99.90
25436;DHT22;13363;52.772;-3.890;2022-08-07T06:15:40;12.10;99.90
25436;DHT22;13363;52.772;-3.890;2022-08-07T06:18:07;12.60;99.90
25436;DHT22;13363;52.772;-3.890;2022-08-07T06:20:36;13.60;99.90
25436;DHT22;13363;52.772;-3.890;2022-08-07T06:23:05;14.70;99.90
25436;DHT22;13363;52.772;-3.890;2022-08-07T06:25:32;15.50;99.90
25436;DHT22;13363;52.772;-3.890;2022-08-07T06:28:06;15.50;99.90
25436;DHT22;13363;52.772;-3.890;2022-08-07T06:30:36;14.90;99.90
25436;DHT22;13363;52.772;-3.890;2022-08-07T06:33:03;14.50;99.90
25436;DHT22;13363;52.772;-3.890;2022-08-07T06:35:30;14.40;99.90
25436;DHT22;13363;52.772;-3.890;2022-08-07T06:37:56;15.10;99.90
25436;DHT22;13363;52.772;-3.890;2022-08-07T06:40:23;16.20;99.90
25436;DHT22;13363;52.772;-3.890;2022-08-07T06:42:51;16.70;99.90
25436;DHT22;13363;52.772;-3.890;2022-08-07T06:45:19;17.10;99.90
25436;DHT22;13363;52.772;-3.890;2022-08-07T06:47:47;17.70;99.90
25436;DHT22;13363;52.772;-3.890;2022-08-07T06:50:13;18.50;99.90
25436;DHT22;13363;52.772;-3.890;2022-08-07T06:52:43;19.60;99.90
25436;DHT22;13363;52.772;-3.890;2022-08-07T06:55:16;20.70;99.90
25436;DHT22;13363;52.772;-3.890;2022-08-07T06:57:43;21.50;99.90
25436;DHT22;13363;52.772;-3.890;2022-08-07T07:00:11;21.80;99.90
25436;DHT22;13363;52.772;-3.890;2022-08-07T07:02:38;20.80;99.90
25436;DHT22;13363;52.772;-3.890;2022-08-07T07:05:05;19.10;99.90
25436;DHT22;13363;52.772;-3.890;2022-08-07T07:07:31;19.00;99.90
25436;DHT22;13363;52.772;-3.890;2022-08-07T07:09:57;19.70;99.90
25436;DHT22;13363;52.772;-3.890;2022-08-07T07:12:41;20.40;99.90
25436;DHT22;13363;52.772;-3.890;2022-08-07T07:15:10;21.60;99.90
25436;DHT22;13363;52.772;-3.890;2022-08-07T07:17:42;21.90;99.90
25436;DHT22;13363;52.772;-3.890;2022-08-07T07:20:15;21.10;99.90
25436;DHT22;13363;52.772;-3.890;2022-08-07T07:22:43;21.10;99.90
25436;DHT22;13363;52.772;-3.890;2022-08-07T07:25:12;22.00;99.90
25436;DHT22;13363;52.772;-3.890;2022-08-07T07:27:52;23.30;99.90
25436;DHT22;13363;52.772;-3.890;2022-08-07T07:30:22;22.90;99.90
25436;DHT22;13363;52.772;-3.890;2022-08-07T07:32:50;22.80;99.90
25436;DHT22;13363;52.772;-3.890;2022-08-07T07:35:17;22.40;99.90
25436;DHT22;13363;52.772;-3.890;2022-08-07T07:37:44;22.40;99.90
25436;DHT22;13363;52.772;-3.890;2022-08-07T07:40:16;22.60;99.90
25436;DHT22;13363;52.772;-3.890;2022-08-07T07:42:44;23.10;99.90
25436;DHT22;13363;52.772;-3.890;2022-08-07T07:45:11;24.00;99.90
25436;DHT22;13363;52.772;-3.890;2022-08-07T07:47:41;23.10;99.90
25436;DHT22;13363;52.772;-3.890;2022-08-07T07:50:09;21.90;99.90
25436;DHT22;13363;52.772;-3.890;2022-08-07T07:52:37;22.40;99.90
25436;DHT22;13363;52.772;-3.890;2022-08-07T07:55:04;22.90;99.90
25436;DHT22;13363;52.772;-3.890;2022-08-07T07:57:31;23.10;99.90
25436;DHT22;13363;52.772;-3.890;2022-08-07T07:59:59;23.40;99.90
25436;DHT22;13363;52.772;-3.890;2022-08-07T08:02:26;23.60;99.90
25436;DHT22;13363;52.772;-3.890;2022-08-07T08:04:54;23.70;99.90
25436;DHT22;13363;52.772;-3.890;2022-08-07T08:07:22;22.70;99.90
25436;DHT22;13363;52.772;-3.890;2022-08-07T08:09:51;23.10;99.90
25436;DHT22;13363;52.772;-3.890;2022-08-07T08:12:18;24.00;99.90
25436;DHT22;13363;52.772;-3.890;2022-08-07T08:14:44;25.00;99.90
25436;DHT22;13363;52.772;-3.890;2022-08-07T08:17:12;25.70;99.90
25436;DHT22;13363;52.772;-3.890;2022-08-07T08:19:40;25.80;99.90
25436;DHT22;13363;52.772;-3.890;2022-08-07T08:22:10;25.80;99.90
25436;DHT22;13363;52.772;-3.890;2022-08-07T08:24:55;25.30;99.90
25436;DHT22;13363;52.772;-3.890;2022-08-07T08:27:42;24.80;99.90
25436;DHT22;13363;52.772;-3.890;2022-08-07T08:30:12;24.90;99.90
25436;DHT22;13363;52.772;-3.890;2022-08-07T08:32:47;25.00;99.90
25436;DHT22;13363;52.772;-3.890;2022-08-07T08:35:19;25.80;99.90
25436;DHT22;13363;52.772;-3.890;2022-08-07T08:37:47;26.40;99.90
25436;DHT22;13363;52.772;-3.890;2022-08-07T08:40:25;27.30;99.90
25436;DHT22;13363;52.772;-3.890;2022-08-07T08:43:07;26.50;99.90
25436;DHT22;13363;52.772;-3.890;2022-08-07T08:45:56;26.40;99.90
25436;DHT22;13363;52.772;-3.890;2022-08-07T08:48:53;25.50;99.90
25436;DHT22;13363;52.772;-3.890;2022-08-07T08:51:38;24.40;99.90
25436;DHT22;13363;52.772;-3.890;2022-08-07T08:54:18;24.20;99.90
25436;DHT22;13363;52.772;-3.890;2022-08-07T08:56:48;23.70;99.90
25436;DHT22;13363;52.772;-3.890;2022-08-07T08:59:32;22.00;99.90
25436;DHT22;13363;52.772;-3.890;2022-08-07T09:04:59;21.90;99.90
25436;DHT22;13363;52.772;-3.890;2022-08-07T09:07:43;22.10;99.90
25436;DHT22;13363;52.772;-3.890;2022-08-07T09:10:24;22.50;99.90
25436;DHT22;13363;52.772;-3.890;2022-08-07T09:13:13;22.90;99.90
25436;DHT22;13363;52.772;-3.890;2022-08-07T09:16:08;22.80;99.90
25436;DHT22;13363;52.772;-3.890;2022-08-07T09:24:21;21.90;99.90
25436;DHT22;13363;52.772;-3.890;2022-08-07T09:29:43;22.80;99.90
25436;DHT22;13363;52.772;-3.890;2022-08-07T09:32:20;22.50;99.90
25436;DHT22;13363;52.772;-3.890;2022-08-07T09:35:17;21.80;99.90
25436;DHT22;13363;52.772;-3.890;2022-08-07T09:37:53;21.50;99.90
25436;DHT22;13363;52.772;-3.890;2022-08-07T09:41:15;20.80;99.90
25436;DHT22;13363;52.772;-3.890;2022-08-07T09:44:08;20.60;99.90
25436;DHT22;13363;52.772;-3.890;2022-08-07T09:49:33;20.50;99.90
25436;DHT22;13363;52.772;-3.890;2022-08-07T09:52:25;20.70;99.90
25436;DHT22;13363;52.772;-3.890;2022-08-07T09:55:09;21.30;99.90
25436;DHT22;13363;52.772;-3.890;2022-08-07T10:01:03;22.20;99.90
25436;DHT22;13363;52.772;-3.890;2022-08-07T10:09:45;22.80;99.90
25436;DHT22;13363;52.772;-3.890;2022-08-07T10:15:33;23.90;99.90
25436;DHT22;13363;52.772;-3.890;2022-08-07T10:21:09;23.20;99.90
25436;DHT22;13363;52.772;-3.890;2022-08-07T10:40:47;23.00;99.90
25436;DHT22;13363;52.772;-3.890;2022-08-07T10:43:30;22.80;99.90
25436;DHT22;13363;52.772;-3.890;2022-08-07T10:46:00;23.20;99.90
25436;DHT22;13363;52.772;-3.890;2022-08-07T10:48:56;23.20;99.90
25436;DHT22;13363;52.772;-3.890;2022-08-07T10:51:55;23.10;99.90
25436;DHT22;13363;52.772;-3.890;2022-08-07T10:54:36;23.10;99.90
25436;DHT22;13363;52.772;-3.890;2022-08-07T10:57:14;23.10;99.90
25436;DHT22;13363;52.772;-3.890;2022-08-07T11:02:38;22.40;99.90
25436;DHT22;13363;52.772;-3.890;2022-08-07T11:05:35;22.20;99.90
25436;DHT22;13363;52.772;-3.890;2022-08-07T11:10:56;22.80;99.90
25436;DHT22;13363;52.772;-3.890;2022-08-07T11:16:24;22.90;99.90
25436;DHT22;13363;52.772;-3.890;2022-08-07T11:21:26;22.90;99.90
25436;DHT22;13363;52.772;-3.890;2022-08-07T11:26:56;23.00;99.90
25436;DHT22;13363;52.772;-3.890;2022-08-07T11:29:58;23.00;99.90
25436;DHT22;13363;52.772;-3.890;2022-08-07T11:35:08;22.80;99.90
25436;DHT22;13363;52.772;-3.890;2022-08-07T11:40:34;23.40;99.90
25436;DHT22;13363;52.772;-3.890;2022-08-07T11:43:21;23.00;99.90
25436;DHT22;13363;52.772;-3.890;2022-08-07T11:46:19;23.00;99.90
25436;DHT22;13363;52.772;-3.890;2022-08-07T11:57:42;23.40;99.90
25436;DHT22;13363;52.772;-3.890;2022-08-07T12:00:14;22.70;99.90
25436;DHT22;13363;52.772;-3.890;2022-08-07T12:08:29;22.90;99.90
25436;DHT22;13363;52.772;-3.890;2022-08-07T12:11:15;23.10;99.90
25436;DHT22;13363;52.772;-3.890;2022-08-07T12:16:34;22.80;99.90
25436;DHT22;13363;52.772;-3.890;2022-08-07T12:27:34;22.60;99.90
25436;DHT22;13363;52.772;-3.890;2022-08-07T12:30:06;22.80;99.90
25436;DHT22;13363;52.772;-3.890;2022-08-07T12:32:44;22.70;99.90
25436;DHT22;13363;52.772;-3.890;2022-08-07T12:35:13;22.60;99.90
25436;DHT22;13363;52.772;-3.890;2022-08-07T12:37:43;22.40;99.90
25436;DHT22;13363;52.772;-3.890;2022-08-07T12:40:12;22.80;99.90
25436;DHT22;13363;52.772;-3.890;2022-08-07T12:42:41;23.00;99.90
25436;DHT22;13363;52.772;-3.890;2022-08-07T12:45:15;22.60;99.90
25436;DHT22;13363;52.772;-3.890;2022-08-07T12:47:58;22.80;99.90
25436;DHT22;13363;52.772;-3.890;2022-08-07T12:50:36;22.50;99.90
25436;DHT22;13363;52.772;-3.890;2022-08-07T12:53:39;22.80;99.90
25436;DHT22;13363;52.772;-3.890;2022-08-07T12:56:23;23.10;99.90
25436;DHT22;13363;52.772;-3.890;2022-08-07T12:58:50;23.50;99.90
25436;DHT22;13363;52.772;-3.890;2022-08-07T13:01:58;23.30;99.90
25436;DHT22;13363;52.772;-3.890;2022-08-07T13:07:49;23.10;99.90
25436;DHT22;13363;52.772;-3.890;2022-08-07T13:21:48;22.10;99.90
25436;DHT22;13363;52.772;-3.890;2022-08-07T13:24:29;22.30;99.90
25436;DHT22;13363;52.772;-3.890;2022-08-07T13:27:12;23.00;99.90
25436;DHT22;13363;52.772;-3.890;2022-08-07T13:30:02;22.60;99.90
25436;DHT22;13363;52.772;-3.890;2022-08-07T13:32:52;22.60;99.90
25436;DHT22;13363;52.772;-3.890;2022-08-07T13:35:29;22.60;99.90
25436;DHT22;13363;52.772;-3.890;2022-08-07T13:44:06;22.20;99.90
25436;DHT22;13363;52.772;-3.890;2022-08-07T13:46:37;22.30;99.90
25436;DHT22;13363;52.772;-3.890;2022-08-07T13:49:05;22.60;99.90
25436;DHT22;13363;52.772;-3.890;2022-08-07T13:51:33;22.40;99.90
25436;DHT22;13363;52.772;-3.890;2022-08-07T13:54:03;22.60;99.90
25436;DHT22;13363;52.772;-3.890;2022-08-07T13:56:33;22.80;99.90
25436;DHT22;13363;52.772;-3.890;2022-08-07T13:59:00;22.90;99.90
25436;DHT22;13363;52.772;-3.890;2022-08-07T14:01:32;22.80;99.90
25436;DHT22;13363;52.772;-3.890;2022-08-07T14:04:06;22.60;99.90
25436;DHT22;13363;52.772;-3.890;2022-08-07T14:06:52;22.50;99.90
25436;DHT22;13363;52.772;-3.890;2022-08-07T14:09:27;22.50;99.90
25436;DHT22;13363;52.772;-3.890;2022-08-07T14:11:58;22.70;99.90
25436;DHT22;13363;52.772;-3.890;2022-08-07T14:14:40;22.90;99.90
25436;DHT22;13363;52.772;-3.890;2022-08-07T14:17:09;22.90;99.90
25436;DHT22;13363;52.772;-3.890;2022-08-07T14:19:43;22.90;99.90
25436;DHT22;13363;52.772;-3.890;2022-08-07T14:22:15;22.70;99.90
25436;DHT22;13363;52.772;-3.890;2022-08-07T14:24:48;22.80;99.90
25436;DHT22;13363;52.772;-3.890;2022-08-07T14:27:25;22.90;99.90
25436;DHT22;13363;52.772;-3.890;2022-08-07T14:30:05;22.90;99.90
25436;DHT22;13363;52.772;-3.890;2022-08-07T14:32:44;22.70;99.90
25436;DHT22;13363;52.772;-3.890;2022-08-07T14:35:28;22.60;99.90
25436;DHT22;13363;52.772;-3.890;2022-08-07T14:37:58;22.50;99.90
25436;DHT22;13363;52.772;-3.890;2022-08-07T14:40:26;22.20;99.90
25436;DHT22;13363;52.772;-3.890;2022-08-07T14:45:29;22.30;99.90
25436;DHT22;13363;52.772;-3.890;2022-08-07T14:47:56;22.50;99.90
25436;DHT22;13363;52.772;-3.890;2022-08-07T14:50:23;22.70;99.90
25436;DHT22;13363;52.772;-3.890;2022-08-07T14:52:51;22.30;99.90
25436;DHT22;13363;52.772;-3.890;2022-08-07T14:55:19;22.40;99.90
25436;DHT22;13363;52.772;-3.890;2022-08-07T14:57:49;22.50;99.90
25436;DHT22;13363;52.772;-3.890;2022-08-07T15:00:16;22.30;99.90
25436;DHT22;13363;52.772;-3.890;2022-08-07T15:02:47;22.50;99.90
25436;DHT22;13363;52.772;-3.890;2022-08-07T15:05:16;22.70;99.90
25436;DHT22;13363;52.772;-3.890;2022-08-07T15:07:44;22.70;99.90
25436;DHT22;13363;52.772;-3.890;2022-08-07T15:10:20;22.70;99.90
25436;DHT22;13363;52.772;-3.890;2022-08-07T15:12:48;22.80;99.90
25436;DHT22;13363;52.772;-3.890;2022-08-07T15:15:20;22.50;99.90
25436;DHT22;13363;52.772;-3.890;2022-08-07T15:17:55;22.10;99.90
25436;DHT22;13363;52.772;-3.890;2022-08-07T15:20:41;22.00;99.90
25436;DHT22;13363;52.772;-3.890;2022-08-07T15:23:18;22.30;99.90
25436;DHT22;13363;52.772;-3.890;2022-08-07T15:25:53;22.10;99.90
25436;DHT22;13363;52.772;-3.890;2022-08-07T15:28:22;21.70;99.90
25436;DHT22;13363;52.772;-3.890;2022-08-07T15:30:51;21.50;99.90
25436;DHT22;13363;52.772;-3.890;2022-08-07T15:33:32;21.70;99.90
25436;DHT22;13363;52.772;-3.890;2022-08-07T15:36:04;21.60;99.90
25436;DHT22;13363;52.772;-3.890;2022-08-07T15:38:37;21.70;99.90
25436;DHT22;13363;52.772;-3.890;2022-08-07T15:41:09;21.90;99.90
25436;DHT22;13363;52.772;-3.890;2022-08-07T15:43:36;22.00;99.90
25436;DHT22;13363;52.772;-3.890;2022-08-07T15:46:17;22.00;99.90
25436;DHT22;13363;52.772;-3.890;2022-08-07T15:48:47;21.90;99.90
25436;DHT22;13363;52.772;-3.890;2022-08-07T15:51:14;21.80;99.90
25436;DHT22;13363;52.772;-3.890;2022-08-07T15:53:42;21.90;99.90
25436;DHT22;13363;52.772;-3.890;2022-08-07T15:56:10;21.90;99.90
25436;DHT22;13363;52.772;-3.890;2022-08-07T15:58:56;21.60;99.90
25436;DHT22;13363;52.772;-3.890;2022-08-07T16:01:48;21.70;99.90
25436;DHT22;13363;52.772;-3.890;2022-08-07T16:04:16;21.70;99.90
25436;DHT22;13363;52.772;-3.890;2022-08-07T16:06:50;21.70;99.90
25436;DHT22;13363;52.772;-3.890;2022-08-07T16:12:09;21.80;99.90
25436;DHT22;13363;52.772;-3.890;2022-08-07T16:20:42;22.00;99.90
25436;DHT22;13363;52.772;-3.890;2022-08-07T16:34:42;22.10;99.90
25436;DHT22;13363;52.772;-3.890;2022-08-07T16:43:06;22.20;99.90
25436;DHT22;13363;52.772;-3.890;2022-08-07T16:48:40;22.50;99.90
25436;DHT22;13363;52.772;-3.890;2022-08-07T16:51:14;22.60;99.90
25436;DHT22;13363;52.772;-3.890;2022-08-07T16:54:44;22.50;99.90
25436;DHT22;13363;52.772;-3.890;2022-08-07T16:57:17;22.50;99.90
25436;DHT22;13363;52.772;-3.890;2022-08-07T17:08:06;22.00;99.90
25436;DHT22;13363;52.772;-3.890;2022-08-07T17:10:51;21.80;99.90
25436;DHT22;13363;52.772;-3.890;2022-08-07T17:16:02;21.50;99.90
25436;DHT22;13363;52.772;-3.890;2022-08-07T17:20:57;21.30;99.90
25436;DHT22;13363;52.772;-3.890;2022-08-07T17:26:17;21.20;99.90
25436;DHT22;13363;52.772;-3.890;2022-08-07T17:29:17;21.10;99.90
25436;DHT22;13363;52.772;-3.890;2022-08-07T17:31:56;21.00;99.90
25436;DHT22;13363;52.772;-3.890;2022-08-07T17:34:36;21.00;99.90
25436;DHT22;13363;52.772;-3.890;2022-08-07T17:37:29;20.90;99.90
25436;DHT22;13363;52.772;-3.890;2022-08-07T17:40:02;20.80;99.90
25436;DHT22;13363;52.772;-3.890;2022-08-07T17:42:42;20.80;99.90
25436;DHT22;13363;52.772;-3.890;2022-08-07T17:45:19;20.70;99.90
25436;DHT22;13363;52.772;-3.890;2022-08-07T17:50:20;20.60;99.90
25436;DHT22;13363;52.772;-3.890;2022-08-07T17:53:12;20.60;99.90
25436;DHT22;13363;52.772;-3.890;2022-08-07T17:55:54;20.50;99.90
25436;DHT22;13363;52.772;-3.890;2022-08-07T18:01:13;20.40;99.90
25436;DHT22;13363;52.772;-3.890;2022-08-07T18:03:48;20.40;99.90
25436;DHT22;13363;52.772;-3.890;2022-08-07T18:06:20;20.30;99.90
25436;DHT22;13363;52.772;-3.890;2022-08-07T18:08:54;20.30;99.90
25436;DHT22;13363;52.772;-3.890;2022-08-07T18:11:40;20.30;99.90
25436;DHT22;13363;52.772;-3.890;2022-08-07T18:14:25;20.30;99.90
25436;DHT22;13363;52.772;-3.890;2022-08-07T18:17:09;20.20;99.90
25436;DHT22;13363;52.772;-3.890;2022-08-07T18:19:54;20.10;99.90
25436;DHT22;13363;52.772;-3.890;2022-08-07T18:22:31;20.00;99.90
25436;DHT22;13363;52.772;-3.890;2022-08-07T18:24:59;19.90;99.90
25436;DHT22;13363;52.772;-3.890;2022-08-07T18:27:51;19.80;99.90
25436;DHT22;13363;52.772;-3.890;2022-08-07T18:33:43;19.70;99.90
25436;DHT22;13363;52.772;-3.890;2022-08-07T18:36:20;19.60;99.90
25436;DHT22;13363;52.772;-3.890;2022-08-07T18:41:43;19.50;99.90
25436;DHT22;13363;52.772;-3.890;2022-08-07T18:50:16;19.20;99.90
25436;DHT22;13363;52.772;-3.890;2022-08-07T19:01:44;18.90;99.90